Time;durP1;ratioP1;P1;durP2;ratioP2;P2;SDS_P1;SDS_P2;PMS_P1;PMS_P2;Temp;Humidity;BMP_temperature;BMP_pressure;BME280_temperature;BME280_humidity;BME280_pressure;Samples;Min_cycle;Max_cycle;Signal;HPM_P1;HPM_P2
2023/08/15 00:02:18;;;;;;;26.77;25.33;;;23.40;99.90;;;;;;5053543;28;20471;-80
2023/08/15 00:04:45;;;;;;;26.73;25.23;;;23.30;99.90;;;;;;5053399;28;20640;-80
2023/08/15 00:07:13;;;;;;;28.20;26.50;;;23.30;99.90;;;;;;5053348;28;20448;-78
2023/08/15 00:09:40;;;;;;;27.53;25.87;;;23.30;99.90;;;;;;5053840;28;20463;-82
2023/08/15 00:12:08;;;;;;;27.90;26.03;;;23.30;99.90;;;;;;5053078;28;20543;-80
2023/08/15 00:14:34;;;;;;;29.07;27.37;;;23.30;99.90;;;;;;5052445;28;20498;-83
2023/08/15 00:17:01;;;;;;;27.93;26.23;;;23.30;99.90;;;;;;5054008;28;20548;-83
2023/08/15 00:19:28;;;;;;;29.87;27.87;;;23.20;99.90;;;;;;5054753;28;21006;-79
2023/08/15 00:21:55;;;;;;;28.43;26.63;;;23.20;99.90;;;;;;5053734;28;20466;-81
2023/08/15 00:24:23;;;;;;;26.73;25.13;;;23.20;99.90;;;;;;5052568;28;20538;-78
2023/08/15 00:26:50;;;;;;;28.63;26.50;;;23.20;99.90;;;;;;5052579;28;20444;-77
2023/08/15 00:29:17;;;;;;;30.67;28.87;;;23.20;99.90;;;;;;5051933;28;20463;-80
2023/08/15 00:31:43;;;;;;;29.03;27.50;;;23.10;99.90;;;;;;5053578;28;20480;-78
2023/08/15 00:34:10;;;;;;;29.70;27.77;;;23.20;99.90;;;;;;5052904;28;20533;-79
2023/08/15 00:36:37;;;;;;;27.13;25.43;;;23.20;99.90;;;;;;5053319;28;20785;-78
2023/08/15 00:39:04;;;;;;;26.50;24.90;;;23.10;99.90;;;;;;5053013;28;20567;-79
2023/08/15 00:41:33;;;;;;;27.30;25.80;;;23.10;99.90;;;;;;5051831;28;20555;-80
2023/08/15 00:43:59;;;;;;;26.90;25.37;;;23.10;99.90;;;;;;5051911;28;20483;-78
2023/08/15 00:46:27;;;;;;;28.07;26.37;;;23.10;99.90;;;;;;5052206;28;20448;-80
2023/08/15 00:48:55;;;;;;;27.77;25.77;;;23.20;99.90;;;;;;5052045;28;20444;-80
2023/08/15 00:51:22;;;;;;;27.53;25.87;;;23.10;99.90;;;;;;5053473;28;20483;-79
2023/08/15 00:53:50;;;;;;;29.47;27.73;;;23.20;99.90;;;;;;5053489;28;20440;-80
2023/08/15 00:56:17;;;;;;;28.53;26.83;;;23.20;99.90;;;;;;5052546;28;20448;-81
2023/08/15 00:58:45;;;;;;;29.30;27.30;;;23.10;99.90;;;;;;5051743;28;20554;-79
2023/08/15 01:01:17;;;;;;;29.63;27.80;;;23.10;99.90;;;;;;5052293;28;20470;-80
2023/08/15 01:03:44;;;;;;;27.00;25.43;;;23.00;99.90;;;;;;5054814;28;20454;-78
2023/08/15 01:06:11;;;;;;;29.47;27.67;;;23.00;99.90;;;;;;5052727;28;20526;-79
2023/08/15 01:08:37;;;;;;;29.23;27.13;;;23.00;99.90;;;;;;5052331;28;20451;-79
2023/08/15 01:11:05;;;;;;;28.63;27.00;;;23.10;99.90;;;;;;5052041;28;20444;-80
2023/08/15 01:13:38;;;;;;;29.87;28.03;;;23.10;99.90;;;;;;5051867;28;20448;-77
2023/08/15 01:16:08;;;;;;;31.47;29.10;;;23.00;99.90;;;;;;5051679;28;20444;-77
2023/08/15 01:18:40;;;;;;;30.00;27.80;;;23.00;99.90;;;;;;5051945;28;20450;-78
2023/08/15 01:21:07;;;;;;;28.60;26.90;;;22.90;99.90;;;;;;5051648;28;20456;-79
2023/08/15 01:23:41;;;;;;;28.47;26.77;;;22.90;99.90;;;;;;5051704;28;20474;-79
2023/08/15 01:26:08;;;;;;;28.57;26.87;;;22.70;99.90;;;;;;5051376;28;20479;-78
2023/08/15 01:28:35;;;;;;;28.13;26.43;;;22.70;99.90;;;;;;5051291;28;20471;-78
2023/08/15 01:31:08;;;;;;;29.13;27.13;;;22.70;99.90;;;;;;5051517;28;20444;-78
2023/08/15 01:33:38;;;;;;;30.43;28.33;;;22.60;99.90;;;;;;5051428;28;20432;-78
2023/08/15 01:36:10;;;;;;;30.43;28.67;;;22.60;99.90;;;;;;5051283;28;20470;-75
2023/08/15 01:38:43;;;;;;;28.20;26.60;;;22.60;99.90;;;;;;5050633;28;20541;-75
2023/08/15 01:41:12;;;;;;;28.77;26.73;;;22.60;99.90;;;;;;5051055;28;20444;-75
2023/08/15 01:43:41;;;;;;;27.33;25.63;;;22.50;99.90;;;;;;5050126;28;20448;-75
2023/08/15 01:46:09;;;;;;;27.23;25.70;;;22.50;99.90;;;;;;5050631;28;20530;-77
2023/08/15 01:48:40;;;;;;;27.13;25.57;;;22.40;99.90;;;;;;5051024;28;20452;-77
2023/08/15 01:51:07;;;;;;;27.37;25.37;;;22.40;99.90;;;;;;5052064;28;20444;-78
2023/08/15 01:53:34;;;;;;;26.63;24.93;;;22.40;99.90;;;;;;5052068;28;20444;-77
2023/08/15 01:56:02;;;;;;;27.20;25.50;;;22.30;99.90;;;;;;5051508;28;20443;-78
2023/08/15 01:58:29;;;;;;;28.50;26.70;;;22.30;99.90;;;;;;5050898;28;20623;-77
2023/08/15 02:00:55;;;;;;;28.03;26.17;;;22.30;99.90;;;;;;5050270;28;20444;-77
2023/08/15 02:03:22;;;;;;;27.70;25.97;;;22.30;99.90;;;;;;5050468;28;20461;-76
2023/08/15 02:05:49;;;;;;;27.50;25.67;;;22.30;99.90;;;;;;5050264;28;20480;-76
2023/08/15 02:08:16;;;;;;;30.37;28.13;;;22.30;99.90;;;;;;5050714;28;20452;-77
2023/08/15 02:10:42;;;;;;;28.50;26.53;;;22.20;99.90;;;;;;5050931;28;20455;-77
2023/08/15 02:13:10;;;;;;;30.30;28.00;;;22.30;99.90;;;;;;5050272;28;20479;-76
2023/08/15 02:15:37;;;;;;;29.30;27.50;;;22.20;99.90;;;;;;5050185;28;20447;-77
2023/08/15 02:18:04;;;;;;;29.87;27.77;;;22.20;99.90;;;;;;5050188;28;20535;-76
2023/08/15 02:20:31;;;;;;;31.53;28.23;;;22.30;99.90;;;;;;5050380;28;20455;-74
2023/08/15 02:22:58;;;;;;;30.00;28.10;;;22.20;99.90;;;;;;5050158;28;20452;-75
2023/08/15 02:25:25;;;;;;;30.30;28.17;;;22.30;99.90;;;;;;5049793;28;20476;-75
2023/08/15 02:27:51;;;;;;;29.97;28.07;;;22.20;99.90;;;;;;5050245;28;20480;-75
2023/08/15 02:30:19;;;;;;;28.50;26.80;;;22.30;99.90;;;;;;5050088;28;20448;-76
2023/08/15 02:32:46;;;;;;;28.60;26.60;;;22.30;99.90;;;;;;5050142;28;20448;-76
2023/08/15 02:35:14;;;;;;;29.33;27.53;;;22.40;99.90;;;;;;5049983;28;20539;-75
2023/08/15 02:37:40;;;;;;;27.50;25.80;;;22.30;99.90;;;;;;5049831;28;20959;-76
2023/08/15 02:40:09;;;;;;;28.73;27.07;;;22.30;99.90;;;;;;5049798;28;20926;-75
2023/08/15 02:42:36;;;;;;;27.47;25.73;;;22.30;99.90;;;;;;5050004;28;20764;-76
2023/08/15 02:45:03;;;;;;;28.50;26.20;;;22.30;99.90;;;;;;5049867;28;20506;-76
2023/08/15 02:47:31;;;;;;;28.77;26.67;;;22.20;99.90;;;;;;5049837;28;21023;-75
2023/08/15 02:49:58;;;;;;;27.53;25.93;;;22.20;99.90;;;;;;5049693;28;20459;-75
2023/08/15 02:52:25;;;;;;;28.83;26.70;;;22.20;99.90;;;;;;5049581;28;20903;-75
2023/08/15 02:54:51;;;;;;;29.50;27.60;;;22.20;99.90;;;;;;5049971;28;20463;-75
2023/08/15 02:57:18;;;;;;;29.60;27.80;;;22.20;99.90;;;;;;5053839;28;20835;-76
2023/08/15 02:59:45;;;;;;;28.17;26.67;;;22.30;99.90;;;;;;5053642;28;20468;-76
2023/08/15 03:02:13;;;;;;;28.43;26.77;;;22.30;99.90;;;;;;5053385;28;21084;-77
2023/08/15 03:04:41;;;;;;;28.73;26.80;;;22.30;99.90;;;;;;5053489;28;20484;-76
2023/08/15 03:07:08;;;;;;;29.30;27.60;;;22.20;99.90;;;;;;5053804;28;20475;-76
2023/08/15 03:09:35;;;;;;;28.57;26.77;;;22.20;99.90;;;;;;5054858;28;20440;-76
2023/08/15 03:12:02;;;;;;;28.27;26.67;;;22.20;99.90;;;;;;5054483;28;20451;-76
2023/08/15 03:14:29;;;;;;;27.27;25.73;;;22.20;99.90;;;;;;5054615;28;20451;-75
2023/08/15 03:16:56;;;;;;;30.80;28.77;;;22.10;99.90;;;;;;5054568;28;20934;-75
2023/08/15 03:19:23;;;;;;;29.83;27.90;;;22.10;99.90;;;;;;5054832;28;20926;-76
2023/08/15 03:21:51;;;;;;;31.37;29.23;;;22.10;99.90;;;;;;5055257;28;20444;-80
2023/08/15 03:24:18;;;;;;;29.23;27.23;;;22.10;99.90;;;;;;5058542;28;20447;-76
2023/08/15 03:26:44;;;;;;;27.60;26.07;;;22.10;99.90;;;;;;5053441;28;20456;-76
2023/08/15 03:29:11;;;;;;;27.87;26.27;;;22.10;99.90;;;;;;5048028;28;20483;-77
2023/08/15 03:31:38;;;;;;;26.83;25.17;;;22.00;99.90;;;;;;5053891;28;20451;-76
2023/08/15 03:34:05;;;;;;;28.50;26.70;;;22.00;99.90;;;;;;5053387;28;20455;-76
2023/08/15 03:36:31;;;;;;;28.40;26.80;;;22.00;99.90;;;;;;5053655;28;20463;-83
2023/08/15 03:38:59;;;;;;;28.23;26.53;;;22.00;99.90;;;;;;5045642;28;20475;-83
2023/08/15 03:41:26;;;;;;;28.67;27.07;;;22.00;99.90;;;;;;5053019;28;20483;-83
2023/08/15 03:43:53;;;;;;;28.53;26.87;;;22.10;99.90;;;;;;5053514;28;20459;-83
2023/08/15 03:46:20;;;;;;;27.87;26.07;;;22.00;99.90;;;;;;5054099;28;20816;-82
2023/08/15 03:48:46;;;;;;;28.37;26.47;;;22.00;99.90;;;;;;5049217;28;20455;-81
2023/08/15 03:51:14;;;;;;;28.37;26.77;;;22.00;99.90;;;;;;5055084;28;20448;-84
2023/08/15 03:53:43;;;;;;;27.97;26.17;;;21.90;99.90;;;;;;5053439;28;20454;-83
2023/08/15 03:56:11;;;;;;;28.93;27.30;;;21.90;99.90;;;;;;5049348;28;20962;-85
2023/08/15 03:58:37;;;;;;;29.23;27.33;;;21.80;99.90;;;;;;5054283;28;20455;-83
2023/08/15 04:01:04;;;;;;;29.57;27.60;;;21.80;99.90;;;;;;5054463;28;20443;-84
2023/08/15 04:03:31;;;;;;;30.00;28.03;;;21.80;99.90;;;;;;5054546;28;20463;-83
2023/08/15 04:05:58;;;;;;;31.00;29.00;;;21.80;99.90;;;;;;5053781;28;20495;-84
2023/08/15 04:08:24;;;;;;;32.37;30.33;;;21.80;99.90;;;;;;5052465;28;20445;-84
2023/08/15 04:10:51;;;;;;;30.13;27.97;;;21.80;99.90;;;;;;5051428;28;20448;-83
2023/08/15 04:13:19;;;;;;;30.13;28.30;;;21.70;99.90;;;;;;5049330;28;20459;-83
2023/08/15 04:15:46;;;;;;;30.77;28.37;;;21.70;99.90;;;;;;5053827;28;20452;-84
2023/08/15 04:18:13;;;;;;;30.80;28.93;;;21.70;99.90;;;;;;5045925;28;20444;-84
2023/08/15 04:20:40;;;;;;;31.57;29.07;;;21.70;99.90;;;;;;5055010;28;20471;-81
2023/08/15 04:23:08;;;;;;;30.00;28.20;;;21.70;99.90;;;;;;5053597;28;20455;-84
2023/08/15 04:25:36;;;;;;;29.43;27.67;;;21.70;99.90;;;;;;5052496;28;20479;-81
2023/08/15 04:28:04;;;;;;;31.00;29.20;;;21.70;99.90;;;;;;5044765;28;20464;-79
2023/08/15 04:30:32;;;;;;;32.23;30.37;;;21.70;99.90;;;;;;5052206;28;20996;-79
2023/08/15 04:32:59;;;;;;;32.17;30.30;;;21.70;99.90;;;;;;5052907;28;20452;-78
2023/08/15 04:35:26;;;;;;;31.70;29.80;;;21.70;99.90;;;;;;5053485;28;20818;-79
2023/08/15 04:37:53;;;;;;;31.63;29.23;;;21.70;99.90;;;;;;5054965;28;20468;-84
2023/08/15 04:40:31;;;;;;;29.70;27.90;;;21.70;99.90;;;;;;5053775;28;20479;-79
2023/08/15 04:42:57;;;;;;;32.90;30.80;;;21.80;99.90;;;;;;5053279;28;20460;-75
2023/08/15 04:45:24;;;;;;;31.23;29.07;;;21.80;99.90;;;;;;5052789;28;20483;-74
2023/08/15 04:47:53;;;;;;;31.27;29.00;;;21.80;99.90;;;;;;5053172;28;20448;-76
2023/08/15 04:50:20;;;;;;;29.40;27.67;;;21.90;99.90;;;;;;5052787;28;20531;-76
2023/08/15 04:52:47;;;;;;;28.50;26.53;;;21.90;99.90;;;;;;5052727;28;20452;-77
2023/08/15 04:55:14;;;;;;;30.02;27.92;;;21.90;99.90;;;;;;5052651;28;20439;-80
2023/08/15 04:57:41;;;;;;;31.10;29.30;;;21.90;99.90;;;;;;5052866;28;20660;-76
2023/08/15 05:00:11;;;;;;;29.70;27.70;;;21.90;99.90;;;;;;5052507;28;20452;-74
2023/08/15 05:02:37;;;;;;;32.10;30.00;;;21.90;99.90;;;;;;5043505;28;20526;-75
2023/08/15 05:05:09;;;;;;;31.57;29.57;;;22.00;99.90;;;;;;5052088;28;20837;-75
2023/08/15 05:07:36;;;;;;;31.97;29.97;;;22.10;99.90;;;;;;5052366;28;20518;-77
2023/08/15 05:13:31;;;;;;;28.60;27.00;;;22.50;99.90;;;;;;4983267;28;20526;-77
2023/08/15 05:15:58;;;;;;;30.47;28.37;;;22.80;99.90;;;;;;4989123;28;21016;-78
2023/08/15 05:18:25;;;;;;;29.20;27.17;;;22.90;99.90;;;;;;5027858;28;20452;-77
2023/08/15 05:20:53;;;;;;;28.43;26.17;;;23.00;99.90;;;;;;5051054;28;20483;-77
2023/08/15 05:23:20;;;;;;;27.67;25.97;;;23.00;99.90;;;;;;5051113;28;20463;-78
2023/08/15 05:25:47;;;;;;;28.07;26.57;;;23.10;99.90;;;;;;5050878;28;20488;-78
2023/08/15 05:28:14;;;;;;;27.03;25.67;;;23.10;99.90;;;;;;5050931;28;20448;-77
2023/08/15 05:30:43;;;;;;;28.37;26.67;;;23.20;99.90;;;;;;5051877;28;20459;-78
2023/08/15 05:33:09;;;;;;;24.57;23.17;;;23.40;99.90;;;;;;5052179;28;20459;-76
2023/08/15 05:35:36;;;;;;;26.03;24.40;;;23.60;99.90;;;;;;5052410;28;20451;-77
2023/08/15 05:38:04;;;;;;;27.50;26.03;;;24.00;99.90;;;;;;5051383;28;20495;-77
2023/08/15 05:40:32;;;;;;;26.60;24.90;;;24.20;99.90;;;;;;5051026;28;20456;-77
2023/08/15 05:42:59;;;;;;;26.03;24.40;;;24.50;99.90;;;;;;5050640;28;20457;-76
2023/08/15 05:45:26;;;;;;;25.73;24.23;;;24.80;99.90;;;;;;5051157;28;20488;-76
2023/08/15 05:47:53;;;;;;;25.80;24.20;;;25.00;99.90;;;;;;5051315;28;20451;-76
2023/08/15 05:50:19;;;;;;;26.67;25.17;;;25.20;99.90;;;;;;5050918;28;20456;-78
2023/08/15 05:52:46;;;;;;;24.67;23.27;;;25.50;99.90;;;;;;5050608;28;20463;-77
2023/08/15 05:55:14;;;;;;;26.70;25.20;;;25.80;99.90;;;;;;5051059;28;20471;-77
2023/08/15 05:57:41;;;;;;;25.93;23.93;;;26.00;99.90;;;;;;5051528;28;20448;-76
2023/08/15 06:00:09;;;;;;;25.57;23.90;;;26.20;99.90;;;;;;5050993;28;20456;-77
2023/08/15 06:02:38;;;;;;;25.00;23.80;;;26.30;99.90;;;;;;5045474;28;20484;-76
2023/08/15 06:05:06;;;;;;;24.90;23.70;;;26.30;99.90;;;;;;5046675;28;20470;-77
2023/08/15 06:07:32;;;;;;;26.03;24.43;;;25.90;99.90;;;;;;5049516;28;21021;-77
2023/08/15 06:09:59;;;;;;;25.03;23.83;;;25.60;99.90;;;;;;5040763;28;20450;-81
2023/08/15 06:12:27;;;;;;;25.60;24.27;;;25.40;99.90;;;;;;5046657;28;20949;-77
2023/08/15 06:14:54;;;;;;;26.77;24.73;;;25.40;99.90;;;;;;5047158;28;20452;-76
2023/08/15 06:17:21;;;;;;;26.37;24.77;;;25.30;99.90;;;;;;5048162;28;20543;-78
2023/08/15 06:19:47;;;;;;;24.47;23.17;;;25.50;99.90;;;;;;5049455;28;20452;-76
2023/08/15 06:22:15;;;;;;;23.10;22.00;;;25.60;99.90;;;;;;5050154;28;20946;-78
2023/08/15 06:24:41;;;;;;;23.73;22.60;;;25.80;99.90;;;;;;5040710;28;20499;-76
2023/08/15 06:27:08;;;;;;;23.37;22.07;;;26.10;99.90;;;;;;5045608;28;20487;-76
2023/08/15 06:29:37;;;;;;;24.57;23.27;;;26.30;99.90;;;;;;5048673;28;20871;-78
2023/08/15 06:32:04;;;;;;;24.03;22.10;;;27.00;99.90;;;;;;5049002;28;20510;-79
2023/08/15 06:34:31;;;;;;;24.80;23.30;;;27.70;99.90;;;;;;5050215;28;20459;-77
2023/08/15 06:36:57;;;;;;;26.63;24.47;;;28.10;99.90;;;;;;5049635;28;20448;-78
2023/08/15 06:39:24;;;;;;;25.27;23.30;;;28.30;99.90;;;;;;5047758;28;20472;-77
2023/08/15 06:41:52;;;;;;;25.20;23.70;;;28.30;99.90;;;;;;5048533;28;20644;-77
2023/08/15 06:44:19;;;;;;;26.80;24.73;;;28.00;99.90;;;;;;5048833;28;20451;-78
2023/08/15 06:46:47;;;;;;;24.67;23.37;;;27.70;99.90;;;;;;5049612;28;20487;-78
2023/08/15 06:49:14;;;;;;;24.30;22.87;;;27.60;99.90;;;;;;5047752;28;20509;-77
2023/08/15 06:51:41;;;;;;;23.43;22.03;;;27.80;99.90;;;;;;5049508;28;20460;-79
2023/08/15 06:54:08;;;;;;;25.47;23.33;;;28.10;99.90;;;;;;5049087;28;20825;-76
2023/08/15 06:56:34;;;;;;;26.20;23.83;;;28.70;99.90;;;;;;5049544;28;20448;-76
2023/08/15 06:59:01;;;;;;;24.80;23.40;;;29.40;99.90;;;;;;5047250;28;20845;-77
2023/08/15 07:01:28;;;;;;;24.20;22.77;;;30.40;99.90;;;;;;5044117;28;20846;-77
2023/08/15 07:03:56;;;;;;;23.50;22.00;;;30.70;99.90;;;;;;5049873;28;20453;-78
2023/08/15 07:06:23;;;;;;;23.37;22.17;;;30.80;99.90;;;;;;5049353;28;20484;-78
2023/08/15 07:08:49;;;;;;;24.30;23.10;;;31.40;99.90;;;;;;5048060;28;20459;-77
2023/08/15 07:11:16;;;;;;;24.07;22.57;;;32.00;99.90;;;;;;5050519;28;20452;-77
2023/08/15 07:13:43;;;;;;;23.57;22.30;;;32.70;99.90;;;;;;5050764;28;20456;-76
2023/08/15 07:16:09;;;;;;;24.57;23.37;;;33.60;98.40;;;;;;5045647;28;20456;-78
2023/08/15 07:18:36;;;;;;;24.60;23.20;;;33.80;97.70;;;;;;5047374;28;20475;-77
2023/08/15 07:21:05;;;;;;;24.70;23.10;;;34.70;96.50;;;;;;5048012;28;20505;-78
2023/08/15 07:23:32;;;;;;;24.67;23.27;;;34.90;96.00;;;;;;5049260;28;20451;-77
2023/08/15 07:25:58;;;;;;;24.30;23.00;;;35.00;95.10;;;;;;5049661;28;20484;-78
2023/08/15 07:28:25;;;;;;;23.77;22.00;;;34.70;94.50;;;;;;5049916;28;20458;-77
2023/08/15 07:30:52;;;;;;;24.00;22.63;;;34.40;94.70;;;;;;5049901;28;20809;-77
2023/08/15 07:33:19;;;;;;;22.83;21.70;;;34.10;95.60;;;;;;5048465;28;21012;-79
2023/08/15 07:35:45;;;;;;;25.03;23.43;;;33.10;97.10;;;;;;5049368;28;20452;-78
2023/08/15 07:38:14;;;;;;;24.70;23.20;;;33.20;96.90;;;;;;5048746;28;20558;-77
2023/08/15 07:40:41;;;;;;;23.60;22.50;;;33.30;96.60;;;;;;5049858;28;20505;-77
2023/08/15 07:43:07;;;;;;;24.20;23.00;;;33.60;95.90;;;;;;5050760;28;20455;-80
2023/08/15 07:45:34;;;;;;;23.80;22.60;;;34.00;95.50;;;;;;5052925;28;20467;-78
2023/08/15 07:48:01;;;;;;;25.20;23.80;;;34.40;94.70;;;;;;5053456;28;20495;-78
2023/08/15 07:50:29;;;;;;;23.63;22.30;;;34.50;93.60;;;;;;5053674;28;20464;-80
2023/08/15 07:52:58;;;;;;;23.63;22.40;;;34.70;93.10;;;;;;5050104;28;20456;-79
2023/08/15 07:55:27;;;;;;;23.87;22.37;;;35.30;92.40;;;;;;5052603;28;20463;-78
2023/08/15 07:57:53;;;;;;;23.50;22.40;;;35.40;92.10;;;;;;5055935;28;20451;-77
2023/08/15 08:00:21;;;;;;;25.17;23.97;;;34.90;92.80;;;;;;5053558;28;20463;-78
2023/08/15 08:02:48;;;;;;;23.23;21.93;;;35.40;92.00;;;;;;5051345;28;20570;-79
2023/08/15 08:05:16;;;;;;;23.23;21.57;;;35.10;92.60;;;;;;5053802;28;20460;-78
2023/08/15 08:07:44;;;;;;;22.83;21.60;;;35.60;91.60;;;;;;5051354;28;20888;-77
2023/08/15 08:10:11;;;;;;;24.63;23.40;;;36.10;90.70;;;;;;5051653;28;20452;-78
2023/08/15 08:12:40;;;;;;;24.20;23.03;;;36.80;89.10;;;;;;5046767;28;20456;-78
2023/08/15 08:15:08;;;;;;;22.57;21.37;;;36.40;90.00;;;;;;5051304;28;20452;-76
2023/08/15 08:17:34;;;;;;;23.37;21.90;;;35.90;90.00;;;;;;5052150;28;20808;-76
2023/08/15 08:20:01;;;;;;;23.23;22.03;;;35.40;91.00;;;;;;5046779;28;20448;-76
2023/08/15 08:22:28;;;;;;;22.80;21.57;;;35.00;91.60;;;;;;5047703;28;20465;-77
2023/08/15 08:24:55;;;;;;;23.87;22.67;;;34.50;92.50;;;;;;5049196;28;21030;-77
2023/08/15 08:27:22;;;;;;;25.83;24.30;;;33.80;93.70;;;;;;5052823;28;20483;-77
2023/08/15 08:29:50;;;;;;;25.60;23.73;;;33.10;95.10;;;;;;5052059;28;20444;-77
2023/08/15 08:32:17;;;;;;;24.73;22.87;;;33.20;95.40;;;;;;5046049;28;20459;-79
2023/08/15 08:34:43;;;;;;;25.07;23.57;;;33.00;95.70;;;;;;5056829;28;20454;-80
2023/08/15 08:37:10;;;;;;;23.07;21.80;;;32.70;96.30;;;;;;5056394;28;20451;-78
2023/08/15 08:39:37;;;;;;;26.67;24.50;;;32.70;96.50;;;;;;5054803;28;20491;-82
2023/08/15 08:42:05;;;;;;;23.90;22.60;;;32.50;97.10;;;;;;5056236;28;20459;-78
2023/08/15 08:44:33;;;;;;;24.37;22.37;;;32.20;97.50;;;;;;5053521;28;20455;-79
2023/08/15 08:47:01;;;;;;;22.40;21.20;;;31.60;99.50;;;;;;5053495;28;20495;-78
2023/08/15 08:49:29;;;;;;;23.03;21.60;;;31.50;99.90;;;;;;5048284;28;20448;-78
2023/08/15 08:51:57;;;;;;;22.23;20.93;;;31.60;99.50;;;;;;5054692;28;20953;-78
2023/08/15 08:54:24;;;;;;;22.47;21.07;;;32.40;98.50;;;;;;5057057;28;20483;-77
2023/08/15 08:56:54;;;;;;;23.53;22.23;;;32.90;96.90;;;;;;5054854;28;20463;-78
2023/08/15 08:59:23;;;;;;;25.10;23.50;;;34.80;93.60;;;;;;5052792;28;20447;-76
2023/08/15 09:01:51;;;;;;;26.20;24.70;;;36.10;90.90;;;;;;5048730;28;20471;-78
2023/08/15 09:04:21;;;;;;;24.07;22.80;;;36.40;89.30;;;;;;5051386;28;20474;-78
2023/08/15 09:06:48;;;;;;;26.57;25.10;;;35.70;89.80;;;;;;5055333;28;21013;-78
2023/08/15 09:09:15;;;;;;;24.43;22.93;;;35.10;91.10;;;;;;5053155;28;20467;-77
2023/08/15 09:11:42;;;;;;;25.13;23.60;;;34.20;92.60;;;;;;5054863;28;20470;-79
2023/08/15 09:14:09;;;;;;;21.87;20.67;;;33.50;94.20;;;;;;5058499;28;20462;-78
2023/08/15 09:16:45;;;;;;;23.07;21.90;;;32.70;95.10;;;;;;5055483;28;20448;-79
2023/08/15 09:19:12;;;;;;;22.47;21.37;;;32.70;96.40;;;;;;5051789;28;20471;-77
2023/08/15 09:21:40;;;;;;;23.00;21.80;;;32.60;97.30;;;;;;5048456;28;20448;-77
2023/08/15 09:24:08;;;;;;;23.57;22.33;;;32.50;98.20;;;;;;5050686;28;20463;-77
2023/08/15 09:26:35;;;;;;;23.13;22.03;;;32.20;98.40;;;;;;5052965;28;20484;-79
2023/08/15 09:29:03;;;;;;;22.83;21.50;;;32.10;98.90;;;;;;5047410;28;20465;-78
2023/08/15 09:31:30;;;;;;;22.67;21.40;;;32.20;99.10;;;;;;5051672;28;20448;-77
2023/08/15 09:33:57;;;;;;;24.83;23.13;;;32.30;98.90;;;;;;5049100;28;20471;-77
2023/08/15 09:36:24;;;;;;;23.60;21.90;;;32.70;98.50;;;;;;5050910;28;20452;-79
2023/08/15 09:38:56;;;;;;;23.10;21.47;;;33.30;96.60;;;;;;5056128;28;20498;-78
2023/08/15 09:41:24;;;;;;;23.67;22.37;;;33.60;95.50;;;;;;5051934;28;20456;-78
2023/08/15 09:43:51;;;;;;;21.20;20.20;;;33.50;95.10;;;;;;5051396;28;20484;-76
2023/08/15 09:46:18;;;;;;;19.50;18.50;;;33.10;92.40;;;;;;5050883;28;20452;-78
2023/08/15 09:48:47;;;;;;;18.60;17.70;;;32.90;88.40;;;;;;5049228;28;20503;-79
2023/08/15 09:51:15;;;;;;;19.13;18.23;;;33.00;81.60;;;;;;5051236;28;20456;-77
2023/08/15 09:53:43;;;;;;;18.43;17.10;;;33.50;82.10;;;;;;5049921;28;20483;-78
2023/08/15 09:56:11;;;;;;;18.20;17.40;;;34.10;79.80;;;;;;5051630;28;20467;-78
2023/08/15 09:58:39;;;;;;;18.37;17.40;;;34.70;76.40;;;;;;5051623;28;20464;-79
2023/08/15 10:01:07;;;;;;;18.47;17.57;;;34.60;75.70;;;;;;5040451;28;20482;-79
2023/08/15 10:03:36;;;;;;;17.30;16.60;;;34.60;70.50;;;;;;5051246;28;21039;-79
2023/08/15 10:06:04;;;;;;;17.30;16.50;;;34.30;70.30;;;;;;5051859;28;20444;-78
2023/08/15 10:08:32;;;;;;;18.87;17.57;;;34.10;69.10;;;;;;5049723;28;20488;-77
2023/08/15 10:11:00;;;;;;;18.20;17.20;;;34.30;69.90;;;;;;5050891;28;20487;-77
2023/08/15 10:13:31;;;;;;;18.20;17.43;;;34.80;69.10;;;;;;5050173;28;20456;-77
2023/08/15 10:15:59;;;;;;;18.33;17.63;;;35.00;68.00;;;;;;5049965;28;20460;-78
2023/08/15 10:18:26;;;;;;;18.17;17.27;;;35.00;67.10;;;;;;5050110;28;20830;-77
2023/08/15 10:20:54;;;;;;;17.70;17.00;;;35.20;66.20;;;;;;5048675;28;20452;-78
2023/08/15 10:23:24;;;;;;;19.97;19.13;;;34.30;68.30;;;;;;5046862;28;20995;-77
2023/08/15 10:25:53;;;;;;;19.57;18.50;;;33.90;68.80;;;;;;5045625;28;20468;-78
2023/08/15 10:28:20;;;;;;;19.20;17.80;;;33.60;70.50;;;;;;5050486;28;20511;-77
2023/08/15 10:30:50;;;;;;;18.13;17.10;;;33.30;71.80;;;;;;5046114;28;20466;-77
2023/08/15 10:33:19;;;;;;;16.83;16.03;;;33.00;73.40;;;;;;5049225;28;20466;-77
2023/08/15 10:35:50;;;;;;;17.47;16.53;;;32.90;74.40;;;;;;5049417;28;20461;-77
2023/08/15 10:38:19;;;;;;;17.77;16.90;;;33.00;74.70;;;;;;5049048;28;20456;-77
2023/08/15 10:40:47;;;;;;;17.93;16.83;;;33.00;75.10;;;;;;5048787;28;20456;-77
2023/08/15 10:43:15;;;;;;;17.53;16.83;;;33.10;74.50;;;;;;5049602;28;20456;-77
2023/08/15 10:45:46;;;;;;;18.13;17.33;;;32.90;74.90;;;;;;5049005;28;20521;-77
2023/08/15 10:48:38;;;;;;;17.80;16.87;;;33.20;74.70;;;;;;5038520;28;20869;-77
2023/08/15 10:51:05;;;;;;;18.17;17.27;;;33.60;73.80;;;;;;5046771;28;20447;-78
2023/08/15 10:53:32;;;;;;;18.50;17.60;;;33.70;73.50;;;;;;5048899;28;20490;-78
2023/08/15 10:56:00;;;;;;;18.93;18.00;;;34.40;72.60;;;;;;5047424;28;20459;-78
2023/08/15 10:58:28;;;;;;;17.97;17.20;;;35.70;69.50;;;;;;5049481;28;20813;-77
2023/08/15 11:00:55;;;;;;;18.93;18.13;;;37.30;66.00;;;;;;5047399;28;20845;-78
2023/08/15 11:03:23;;;;;;;16.63;15.83;;;37.70;63.50;;;;;;5048938;28;20510;-77
2023/08/15 11:05:51;;;;;;;18.57;17.77;;;37.60;62.90;;;;;;5046628;28;20455;-78
2023/08/15 11:08:20;;;;;;;17.83;17.13;;;37.00;63.30;;;;;;5047505;28;20495;-77
2023/08/15 11:10:49;;;;;;;17.77;17.07;;;36.50;63.50;;;;;;5047265;28;20459;-78
2023/08/15 11:13:16;;;;;;;18.97;18.03;;;36.50;63.20;;;;;;5048887;28;20456;-77
2023/08/15 11:15:43;;;;;;;18.97;17.80;;;37.70;61.30;;;;;;5048043;28;20460;-78
2023/08/15 11:18:10;;;;;;;17.73;16.97;;;39.00;58.10;;;;;;5053220;28;20451;-77
2023/08/15 11:20:37;;;;;;;17.80;17.03;;;40.20;53.10;;;;;;5050857;28;20452;-78
2023/08/15 11:23:05;;;;;;;17.97;17.10;;;38.70;52.30;;;;;;5052932;28;20448;-78
2023/08/15 11:25:32;;;;;;;17.30;16.60;;;36.80;54.10;;;;;;5051298;28;20820;-78
2023/08/15 11:27:59;;;;;;;19.30;18.47;;;35.80;55.80;;;;;;5048844;28;20499;-77
2023/08/15 11:30:28;;;;;;;17.50;16.50;;;35.30;57.70;;;;;;5051030;28;20456;-78
2023/08/15 11:32:55;;;;;;;17.20;16.50;;;35.10;58.50;;;;;;5052744;28;20463;-78
2023/08/15 11:35:23;;;;;;;17.40;16.70;;;35.40;58.80;;;;;;5051786;28;20448;-77
2023/08/15 11:37:49;;;;;;;17.33;16.50;;;35.80;58.40;;;;;;5050238;28;20447;-77
2023/08/15 11:40:17;;;;;;;18.87;17.87;;;36.40;56.80;;;;;;5051842;28;20479;-78
2023/08/15 11:42:44;;;;;;;18.50;17.80;;;37.70;56.50;;;;;;5051572;28;20452;-77
2023/08/15 11:45:17;;;;;;;19.93;18.83;;;39.20;53.70;;;;;;5052721;28;20813;-77
2023/08/15 11:47:56;;;;;;;19.77;18.97;;;39.10;52.40;;;;;;5047229;28;20716;-78
2023/08/15 11:50:25;;;;;;;20.60;19.40;;;40.30;51.20;;;;;;5053335;28;20816;-76
2023/08/15 11:52:52;;;;;;;20.97;20.07;;;41.00;49.50;;;;;;5050738;28;20456;-77
2023/08/15 11:55:20;;;;;;;20.50;19.70;;;41.40;49.60;;;;;;5050718;28;20478;-77
2023/08/15 11:57:47;;;;;;;20.60;19.60;;;41.50;48.70;;;;;;5052216;28;20454;-77
2023/08/15 12:00:16;;;;;;;19.20;18.43;;;42.00;48.10;;;;;;5047404;28;20479;-78
2023/08/15 12:02:45;;;;;;;21.83;20.20;;;41.80;48.10;;;;;;5050094;28;20490;-78
2023/08/15 12:05:12;;;;;;;21.97;20.97;;;41.20;48.20;;;;;;5050186;28;20466;-78
2023/08/15 12:07:39;;;;;;;21.40;20.50;;;41.10;49.40;;;;;;5050524;28;20486;-78
2023/08/15 12:10:08;;;;;;;21.97;20.97;;;40.50;50.70;;;;;;5048219;28;20455;-77
2023/08/15 12:12:40;;;;;;;21.30;20.40;;;41.10;49.60;;;;;;5051661;28;20472;-77
2023/08/15 12:15:08;;;;;;;23.83;22.23;;;40.70;50.60;;;;;;5044486;28;20455;-76
2023/08/15 12:17:36;;;;;;;22.47;21.27;;;41.00;50.70;;;;;;5051221;28;21195;-77
2023/08/15 12:20:05;;;;;;;20.80;19.90;;;40.30;52.00;;;;;;5052388;28;20455;-76
2023/08/15 12:22:32;;;;;;;21.83;20.80;;;39.30;54.20;;;;;;5051985;28;20451;-77
2023/08/15 12:24:59;;;;;;;22.13;20.70;;;39.60;54.40;;;;;;5050646;28;20549;-76
2023/08/15 12:27:25;;;;;;;22.07;20.80;;;39.20;55.00;;;;;;5050629;28;20934;-76
2023/08/15 12:29:54;;;;;;;22.03;20.97;;;39.10;56.00;;;;;;5048576;28;20444;-77
2023/08/15 12:32:21;;;;;;;21.67;20.63;;;39.20;55.70;;;;;;5050960;28;20451;-77
2023/08/15 12:34:48;;;;;;;21.30;20.27;;;39.30;55.20;;;;;;5050603;28;20460;-77